Keswick, IA

1:15 AM CDT on October 21, 2014 (GMT -0500)
Dietze Weather Station | Change Station
CLOSE
Current Station
Personal Weather Station
Location: Millersburg, IA
Elevation: 883 ft
Nearby Weather Stations

Elev 883 ft 41.57 °N, 92.16 °W | Updated 4 seconds ago

Clear
Clear
50.6 °F
Feels Like 50.6 °F
N
1.1
Wind Variable Wind from ENE
Gusts 2.2 mph

Today
High -- | Low -- °F
--% Chance of Precip.
Yesterday
High -- | Low -- °F
Precip. -- in
7:27 AM 6:18 PM
Waning Crescent, 7% visible
Pressure 30.05 in
Visibility 10.0 miles
Clouds Clear
Dew Point 41 °F
Humidity 70%
Rainfall 0.00 in
Snow Depth Not available.
UV 0 out of 12
Pollen 1.80 out of 12
Air Quality Not available.
Flu Activity Sporadic
METAR KOOA 210555Z AUTO 34003KT 10SM CLR 07/04 A3005 RMK AO2 T00670039 10132 20067 402110055

More Conditions Fewer Conditions

Pressure 30.05 in
Visibility 10.0 miles
Clouds Clear
Dew Point 41 °F
Humidity 70%
Rainfall 0.00 in
Snow Depth Not available.
UV 0 out of 12
Pollen 1.80 out of 12
Air Quality Not available.
Flu Activity Sporadic
METAR KOOA 210555Z AUTO 34003KT 10SM CLR 07/04 A3005 RMK AO2 T00670039 10132 20067 402110055

More Conditions Fewer Conditions

10-Day Weather Forecast

Almanac

Astronomy

Oct. 21, 2014 Rise Set
Actual Time 7:27 AM CDT 6:18 PM CDT
Civil Twilight 6:59 AM CDT 6:46 PM CDT
Nautical Twilight 6:27 AM CDT 7:19 PM CDT
Astronomical Twilight 5:55 AM CDT 7:51 PM CDT
Moon 5:10 AM CDT 5:14 PM CDT
Length of Visible Light 11h 47m
Length of Day
10h 51m
Tomorrow will be 2m 36s shorter.
Waning Crescent, 7% of the Moon is Illuminated
Today
Waning Crescent
Oct 23
New
Oct 30
First Quarter
Nov 6
Full
Nov 14
Last Quarter

Today's Extremes

State Highs State Lows

Community

WunderPhotos

Upload Photos

1,763,614 photos uploaded!

Nearby

Snow Depth

Station Depth Elevation
No new snow has been reported.

Earthquake Activity

City Distance Mag. Time & Date
No recent earthquake activity has been reported nearby.
Minimum magnitude displayed is 2.5.

Coastal Water Temperatures

Place Temperature
No Stations Reporting

Nearby Weather Stations